createdAt,value
2019-05-12T00:00:09.588Z,94073.90
2019-05-12T00:02:39.656Z,94070.25
2019-05-12T00:05:09.059Z,94069.70
2019-05-12T00:07:38.276Z,94066.58
2019-05-12T00:10:08.599Z,94066.03
2019-05-12T00:12:38.475Z,94067.85
2019-05-12T00:15:08.434Z,94072.48
2019-05-12T00:17:38.845Z,94079.53
2019-05-12T00:20:08.546Z,94084.70
2019-05-12T00:22:39.021Z,94081.84
2019-05-12T00:25:08.860Z,94075.58
2019-05-12T00:27:38.849Z,94081.01
2019-05-12T00:30:10.116Z,94079.98
2019-05-12T00:32:38.760Z,94089.33
2019-05-12T00:35:08.030Z,94088.52
2019-05-12T00:37:38.092Z,94088.77
2019-05-12T00:40:08.869Z,94087.70
2019-05-12T00:42:38.068Z,94093.67
2019-05-12T00:45:08.252Z,94093.14
2019-05-12T00:47:38.878Z,94105.11
2019-05-12T00:50:08.279Z,94112.39
2019-05-12T00:52:38.513Z,94112.92
2019-05-12T00:55:07.906Z,94114.50
2019-05-12T00:57:38.291Z,94126.48
2019-05-12T01:00:10.351Z,94129.57
2019-05-12T01:02:39.010Z,94127.75
2019-05-12T01:05:08.713Z,94141.51
2019-05-12T01:07:38.294Z,94145.39
2019-05-12T01:10:08.852Z,94152.13
2019-05-12T01:12:38.297Z,94156.84
2019-05-12T01:15:08.292Z,94163.63
2019-05-12T01:17:40.128Z,94177.37
2019-05-12T01:20:08.859Z,94181.26
2019-05-12T01:22:38.281Z,94188.32
2019-05-12T01:25:08.586Z,94186.17
2019-05-12T01:27:38.154Z,94193.16
2019-05-12T01:30:08.698Z,94199.58
2019-05-12T01:32:38.987Z,94199.31
2019-05-12T01:35:08.732Z,94204.22
2019-05-12T01:37:38.288Z,94201.33
2019-05-12T01:40:09.087Z,94208.34
2019-05-12T01:42:38.465Z,94206.42
2019-05-12T01:45:09.371Z,94215.52
2019-05-12T01:47:38.337Z,94210.29
2019-05-12T01:50:09.013Z,94220.66
2019-05-12T01:52:38.687Z,94225.83
2019-05-12T01:55:08.422Z,94227.63
2019-05-12T01:57:38.551Z,94230.44
2019-05-12T02:00:12.588Z,94239.27
2019-05-12T02:02:40.989Z,94246.57
2019-05-12T02:05:10.306Z,94238.20
2019-05-12T02:07:40.318Z,94248.84
2019-05-12T02:10:09.539Z,94250.38
2019-05-12T02:12:38.547Z,94257.41
2019-05-12T02:15:08.310Z,94259.70
2019-05-12T02:17:39.096Z,94260.20
2019-05-12T02:20:08.828Z,94268.00
2019-05-12T02:22:38.831Z,94278.37
2019-05-12T02:25:08.216Z,94280.96
2019-05-12T02:27:38.299Z,94278.56
2019-05-12T02:30:09.827Z,94277.80
2019-05-12T02:32:48.480Z,94283.73
2019-05-12T02:35:09.575Z,94283.73
2019-05-12T02:37:38.002Z,94294.69
2019-05-12T02:40:08.198Z,94296.95
2019-05-12T02:42:36.960Z,94299.02
2019-05-12T02:45:10.249Z,94308.84
2019-05-12T02:47:38.929Z,94310.62
2019-05-12T02:50:08.659Z,94307.53
2019-05-12T02:52:37.514Z,94310.86
2019-05-12T02:55:08.381Z,94317.39
2019-05-12T02:57:37.865Z,94319.42
2019-05-12T03:00:08.343Z,94322.28
2019-05-12T03:02:37.120Z,94330.00
2019-05-12T03:05:08.811Z,94326.03
2019-05-12T03:07:37.439Z,94323.93
2019-05-12T03:10:07.865Z,94335.04
2019-05-12T03:12:36.570Z,94340.73
2019-05-12T03:15:06.572Z,94337.81
2019-05-12T03:17:35.781Z,94347.72
2019-05-12T03:20:06.233Z,94346.37
2019-05-12T03:22:35.470Z,94348.44
2019-05-12T03:25:15.413Z,94355.64
2019-05-12T03:27:35.417Z,94364.20
2019-05-12T03:30:11.324Z,94367.52
2019-05-12T03:32:37.908Z,94378.70
2019-05-12T03:35:08.936Z,94380.19
2019-05-12T03:37:36.162Z,94381.45
2019-05-12T03:40:06.881Z,94383.77
2019-05-12T03:42:35.669Z,94388.20
2019-05-12T03:45:05.177Z,94395.24
2019-05-12T03:47:35.588Z,94391.56
2019-05-12T03:50:05.142Z,94399.84
2019-05-12T03:52:35.043Z,94397.78
2019-05-12T03:55:05.725Z,94404.50
2019-05-12T03:57:34.855Z,94414.61
2019-05-12T04:00:05.429Z,94412.24
2019-05-12T04:02:34.313Z,94423.13
2019-05-12T04:05:05.311Z,94425.50
2019-05-12T04:07:34.429Z,94430.97
2019-05-12T04:10:05.319Z,94435.06
2019-05-12T04:12:34.770Z,94434.92
2019-05-12T04:15:05.239Z,94444.23
2019-05-12T04:17:35.136Z,94440.61
2019-05-12T04:20:05.268Z,94442.57
2019-05-12T04:22:35.126Z,94445.87
2019-05-12T04:25:06.067Z,94452.63
2019-05-12T04:27:35.161Z,94452.31
2019-05-12T04:30:05.575Z,94460.69
2019-05-12T04:32:35.806Z,94467.44
2019-05-12T04:35:06.821Z,94469.67
2019-05-12T04:37:35.478Z,94471.50
2019-05-12T04:40:05.868Z,94480.11
2019-05-12T04:42:35.121Z,94485.35
2019-05-12T04:45:05.492Z,94489.50
2019-05-12T04:47:35.076Z,94487.89
2019-05-12T04:50:05.770Z,94491.99
2019-05-12T04:52:35.260Z,94496.66
2019-05-12T04:55:05.056Z,94503.95
2019-05-12T04:57:34.780Z,94506.81
2019-05-12T05:00:06.278Z,94516.17
2019-05-12T05:02:36.503Z,94519.34
2019-05-12T05:05:07.906Z,94526.66
2019-05-12T05:07:36.327Z,94529.16
2019-05-12T05:10:06.068Z,94537.13
2019-05-12T05:12:34.863Z,94543.15
2019-05-12T05:15:05.469Z,94548.84
2019-05-12T05:17:34.844Z,94557.09
2019-05-12T05:20:04.404Z,94560.39
2019-05-12T05:22:33.408Z,94569.74
2019-05-12T05:25:04.284Z,94575.30
2019-05-12T05:27:34.024Z,94581.25
2019-05-12T05:30:03.948Z,94588.70
2019-05-12T05:32:33.898Z,94596.96
2019-05-12T05:35:03.872Z,94598.14
2019-05-12T05:37:36.928Z,94597.62
2019-05-12T05:40:03.896Z,94602.09
2019-05-12T05:42:35.520Z,94598.03
2019-05-12T05:45:04.905Z,94610.25
2019-05-12T05:47:33.652Z,94608.68
2019-05-12T05:50:04.637Z,94615.01
2019-05-12T05:52:37.119Z,94615.97
2019-05-12T05:55:05.753Z,94616.58
2019-05-12T05:57:33.624Z,94623.69
2019-05-12T06:00:07.258Z,94625.82
2019-05-12T06:02:40.191Z,94628.69
2019-05-12T06:05:05.624Z,94636.72
2019-05-12T06:07:38.938Z,94640.77
2019-05-12T06:10:07.824Z,94641.45
2019-05-12T06:12:40.330Z,94643.98
2019-05-12T06:15:09.014Z,94645.47
2019-05-12T06:17:40.144Z,94649.57
2019-05-12T06:20:09.119Z,94652.59
2019-05-12T06:22:37.839Z,94658.44
2019-05-12T06:25:07.521Z,94665.36
2019-05-12T06:27:36.191Z,94666.37
2019-05-12T06:30:09.709Z,94675.58
2019-05-12T06:32:41.201Z,94677.70
2019-05-12T06:35:08.669Z,94679.44
2019-05-12T06:37:37.066Z,94680.52
2019-05-12T06:40:08.904Z,94686.23
2019-05-12T06:42:37.296Z,94691.62
2019-05-12T06:45:06.633Z,94690.33
2019-05-12T06:47:39.445Z,94690.77
2019-05-12T06:50:08.713Z,94696.30
2019-05-12T06:52:38.709Z,94692.25
2019-05-12T06:55:07.870Z,94698.39
2019-05-12T06:57:39.953Z,94698.45
2019-05-12T07:00:07.679Z,94703.92
2019-05-12T07:02:48.465Z,94712.61
2019-05-12T07:05:06.378Z,94719.47
2019-05-12T07:07:41.883Z,94729.94
2019-05-12T07:10:11.646Z,94724.45
2019-05-12T07:12:54.097Z,94729.29
2019-05-12T07:15:08.388Z,94731.14
2019-05-12T07:17:43.991Z,94731.42
2019-05-12T07:20:09.011Z,94737.38
2019-05-12T07:22:44.075Z,94745.44
2019-05-12T07:25:08.509Z,94746.38
2019-05-12T07:27:39.661Z,94755.27
2019-05-12T07:30:07.812Z,94751.65
2019-05-12T07:32:36.273Z,94761.48
2019-05-12T07:35:06.808Z,94756.48
2019-05-12T07:37:35.865Z,94760.22
2019-05-12T07:40:06.047Z,94761.24
2019-05-12T07:42:39.282Z,94771.66
2019-05-12T07:45:11.433Z,94773.33
2019-05-12T07:47:36.971Z,94774.25
2019-05-12T07:50:10.019Z,94783.34
2019-05-12T07:52:36.513Z,94780.03
2019-05-12T07:55:06.131Z,94784.45
2019-05-12T07:57:45.156Z,94787.33
2019-05-12T08:00:11.545Z,94785.30
2019-05-12T08:02:36.960Z,94791.41
2019-05-12T08:05:11.019Z,94792.38
2019-05-12T08:07:40.190Z,94795.80
2019-05-12T08:10:15.909Z,94794.84
2019-05-12T08:12:39.381Z,94797.34
2019-05-12T08:15:09.788Z,94801.86
2019-05-12T08:17:38.300Z,94799.66
2019-05-12T08:20:07.216Z,94802.66
2019-05-12T08:22:35.937Z,94800.58
2019-05-12T08:25:06.795Z,94798.63
2019-05-12T08:27:39.108Z,94797.56
2019-05-12T08:30:06.413Z,94800.28
2019-05-12T08:32:35.161Z,94803.45
2019-05-12T08:35:05.029Z,94810.20
2019-05-12T08:37:33.554Z,94806.89
2019-05-12T08:40:04.074Z,94820.66
2019-05-12T08:42:34.408Z,94822.70
2019-05-12T08:45:04.495Z,94825.57
2019-05-12T08:47:35.615Z,94834.52
2019-05-12T08:50:04.776Z,94837.14
2019-05-12T08:52:37.141Z,94842.11
2019-05-12T08:55:04.479Z,94839.45
2019-05-12T08:57:40.786Z,94843.63
2019-05-12T09:00:08.453Z,94845.11
2019-05-12T09:02:34.511Z,94847.71
2019-05-12T09:05:04.704Z,94851.33
2019-05-12T09:07:35.826Z,94853.92
2019-05-12T09:10:04.352Z,94861.53
2019-05-12T09:12:33.763Z,94861.47
2019-05-12T09:15:04.407Z,94862.83
2019-05-12T09:17:35.644Z,94872.11
2019-05-12T09:20:08.187Z,94875.55
2019-05-12T09:22:34.341Z,94877.99
2019-05-12T09:25:06.126Z,94882.14
2019-05-12T09:27:33.775Z,94883.09
2019-05-12T09:30:07.986Z,94885.35
2019-05-12T09:32:33.947Z,94891.02
2019-05-12T09:35:04.042Z,94894.69
2019-05-12T09:37:39.107Z,94901.69
2019-05-12T09:40:04.617Z,94906.56
2019-05-12T09:42:33.507Z,94905.66
2019-05-12T09:45:06.080Z,94908.66
2019-05-12T09:47:34.201Z,94906.09
2019-05-12T09:50:04.367Z,94909.59
2019-05-12T09:52:33.469Z,94905.73
2019-05-12T09:55:04.261Z,94912.41
2019-05-12T09:57:40.588Z,94908.22
2019-05-12T10:00:04.444Z,94914.92
2019-05-12T10:02:32.792Z,94918.52
2019-05-12T10:05:03.736Z,94916.56
2019-05-12T10:07:33.373Z,94913.31
2019-05-12T10:10:03.660Z,94911.39
2019-05-12T10:12:38.807Z,94924.92
2019-05-12T10:15:04.091Z,94926.16
2019-05-12T10:17:33.963Z,94925.26
2019-05-12T10:20:02.226Z,94932.16
2019-05-12T10:22:40.202Z,94935.59
2019-05-12T10:25:10.081Z,94935.53
2019-05-12T10:27:38.765Z,94936.34
2019-05-12T10:30:12.438Z,94946.86
2019-05-12T10:32:40.184Z,94949.92
2019-05-12T10:35:12.544Z,94950.80
2019-05-12T10:37:40.180Z,94959.77
2019-05-12T10:40:10.143Z,94954.07
2019-05-12T10:42:39.793Z,94956.61
2019-05-12T10:45:10.881Z,94959.91
2019-05-12T10:47:39.404Z,94961.31
2019-05-12T10:50:09.987Z,94959.27
2019-05-12T10:52:39.049Z,94956.83
2019-05-12T10:55:08.760Z,94958.78
2019-05-12T10:57:37.321Z,94955.59
2019-05-12T11:00:11.002Z,94958.37
2019-05-12T11:02:39.393Z,94955.84
2019-05-12T11:05:14.666Z,94954.69
2019-05-12T11:07:38.161Z,94966.23
2019-05-12T11:10:15.339Z,94961.16
2019-05-12T11:12:37.837Z,94961.88
2019-05-12T11:15:09.551Z,94969.61
2019-05-12T11:17:53.422Z,94972.89
2019-05-12T11:20:24.871Z,94975.95
2019-05-12T11:22:54.334Z,94969.68
2019-05-12T11:25:24.710Z,94972.95
2019-05-12T11:27:54.980Z,94981.55
2019-05-12T11:30:23.852Z,94972.73
2019-05-12T11:32:54.105Z,94978.63
2019-05-12T11:35:23.691Z,94973.55
2019-05-12T11:37:53.790Z,94974.03
2019-05-12T11:40:23.957Z,94978.17
2019-05-12T11:42:59.133Z,94972.70
2019-05-12T11:45:24.212Z,94974.29
2019-05-12T11:47:56.929Z,94972.61
2019-05-12T11:50:23.355Z,94974.64
2019-05-12T11:52:52.314Z,94974.52
2019-05-12T11:55:21.268Z,94979.23
2019-05-12T11:57:50.821Z,94983.57
2019-05-12T12:00:21.168Z,94987.05
2019-05-12T12:02:49.551Z,94987.53
2019-05-12T12:05:18.046Z,94985.47
2019-05-12T12:07:51.255Z,94981.80
2019-05-12T12:10:17.815Z,94981.67
2019-05-12T12:12:49.235Z,94984.98
2019-05-12T12:15:20.361Z,94986.89
2019-05-12T12:17:47.001Z,94985.42
2019-05-12T12:20:24.241Z,94990.28
2019-05-12T12:22:51.316Z,94987.14
2019-05-12T12:25:23.374Z,94985.52
2019-05-12T12:27:53.658Z,94985.77
2019-05-12T12:30:23.650Z,94987.88
2019-05-12T12:32:56.871Z,94982.97
2019-05-12T12:35:23.393Z,94980.59
2019-05-12T12:37:53.948Z,94980.23
2019-05-12T12:40:22.066Z,94982.30
2019-05-12T12:42:50.955Z,94987.52
2019-05-12T12:45:23.580Z,94991.16
2019-05-12T12:47:51.497Z,94993.81
2019-05-12T12:50:25.296Z,94993.72
2019-05-12T12:52:50.623Z,94997.70
2019-05-12T12:55:19.020Z,95001.06
2019-05-12T12:57:50.750Z,94997.11
2019-05-12T13:00:29.886Z,94999.66
2019-05-12T13:02:49.418Z,95009.02
2019-05-12T13:05:17.916Z,95004.62
2019-05-12T13:07:46.650Z,95003.71
2019-05-12T13:10:15.116Z,94997.42
2019-05-12T13:12:43.907Z,95003.05
2019-05-12T13:15:14.538Z,95003.06
2019-05-12T13:17:44.819Z,95011.48
2019-05-12T13:20:14.047Z,95007.52
2019-05-12T13:22:44.381Z,95012.72
2019-05-12T13:25:14.280Z,95013.22
2019-05-12T13:27:43.084Z,95017.98
2019-05-12T13:30:19.778Z,95018.31
2019-05-12T13:32:44.143Z,95022.14
2019-05-12T13:35:16.358Z,95024.37
2019-05-12T13:37:43.491Z,95037.20
2019-05-12T13:40:12.277Z,95036.95
2019-05-12T13:42:40.698Z,95040.91
2019-05-12T13:45:09.399Z,95042.86
2019-05-12T13:47:39.843Z,95042.43
2019-05-12T13:50:15.516Z,95047.05
2019-05-12T13:52:39.276Z,95041.81
2019-05-12T13:55:08.001Z,95034.69
2019-05-12T13:57:36.647Z,95027.78
2019-05-12T14:00:10.570Z,95029.91
2019-05-12T14:02:38.203Z,95022.17
2019-05-12T14:05:11.434Z,95025.30
2019-05-12T14:07:37.612Z,95036.11
2019-05-12T14:10:09.377Z,95030.25
2019-05-12T14:12:37.775Z,95027.98
2019-05-12T14:15:09.958Z,95030.37
2019-05-12T14:17:40.471Z,95026.28
2019-05-12T14:20:14.978Z,95030.59
2019-05-12T14:22:41.750Z,95031.45
2019-05-12T14:25:09.484Z,95028.16
2019-05-12T14:27:37.881Z,95032.41
2019-05-12T14:30:10.249Z,95038.30
2019-05-12T14:32:37.659Z,95048.41
2019-05-12T14:35:07.821Z,95050.30
2019-05-12T14:37:40.295Z,95051.53
2019-05-12T14:40:07.378Z,95053.45
2019-05-12T14:42:39.657Z,95047.35
2019-05-12T14:45:07.379Z,95059.08
2019-05-12T14:47:38.896Z,95061.19
2019-05-12T14:50:06.321Z,95050.94
2019-05-12T14:52:34.979Z,95052.70
2019-05-12T14:55:04.042Z,95059.13
2019-05-12T14:57:37.418Z,95058.45
2019-05-12T15:00:04.096Z,95057.90
2019-05-12T15:02:33.231Z,95055.93
2019-05-12T15:05:06.640Z,95055.87
2019-05-12T15:07:32.536Z,95061.68
2019-05-12T15:10:03.609Z,95065.43
2019-05-12T15:12:33.417Z,95059.14
2019-05-12T15:15:03.759Z,95054.81
2019-05-12T15:17:33.742Z,95051.41
2019-05-12T15:20:06.572Z,95057.41
2019-05-12T15:22:33.130Z,95056.83
2019-05-12T15:25:04.845Z,95054.50
2019-05-12T15:27:44.114Z,95055.77
2019-05-12T15:30:04.019Z,95052.89
2019-05-12T15:32:33.969Z,95057.70
2019-05-12T15:35:02.434Z,95058.88
2019-05-12T15:37:36.978Z,95059.49
2019-05-12T15:40:00.947Z,95058.78
2019-05-12T15:42:29.604Z,95066.05
2019-05-12T15:44:58.028Z,95062.65
2019-05-12T15:47:29.796Z,95061.59
2019-05-12T15:49:56.541Z,95061.60
2019-05-12T15:52:29.922Z,95062.37
2019-05-12T15:54:55.394Z,95063.45
2019-05-12T15:57:24.469Z,95065.28
2019-05-12T15:59:54.113Z,95060.45
2019-05-12T16:02:23.542Z,95063.39
2019-05-12T16:04:54.957Z,95067.08
2019-05-12T16:07:24.278Z,95063.02
2019-05-12T16:09:54.626Z,95070.02
2019-05-12T16:12:26.750Z,95071.60
2019-05-12T16:14:54.095Z,95067.14
2019-05-12T16:17:24.990Z,95064.36
2019-05-12T16:19:54.117Z,95070.52
2019-05-12T16:22:23.193Z,95074.12
2019-05-12T16:24:53.235Z,95072.37
2019-05-12T16:27:24.884Z,95076.04
2019-05-12T16:29:53.495Z,95079.95
2019-05-12T16:32:26.688Z,95078.52
2019-05-12T16:34:54.145Z,95079.82
2019-05-12T16:37:30.958Z,95085.97
2019-05-12T16:39:54.071Z,95085.97
2019-05-12T16:42:23.641Z,95088.64
2019-05-12T16:44:56.264Z,95088.92
2019-05-12T16:47:27.294Z,95088.92
2019-05-12T16:49:53.422Z,95093.91
2019-05-12T16:52:24.248Z,95096.57
2019-05-12T16:54:54.069Z,95096.14
2019-05-12T16:57:22.262Z,95093.09
2019-05-12T16:59:53.422Z,95100.89
2019-05-12T17:02:23.382Z,95094.17
2019-05-12T17:04:51.291Z,95097.19
2019-05-12T17:07:20.968Z,95093.78
2019-05-12T17:09:49.886Z,95097.19
2019-05-12T17:12:23.883Z,95103.44
2019-05-12T17:14:50.179Z,95102.32
2019-05-12T17:17:21.230Z,95099.44
2019-05-12T17:19:49.459Z,95094.60
2019-05-12T17:22:18.134Z,95103.07
2019-05-12T17:24:46.823Z,95106.48
2019-05-12T17:27:23.572Z,95112.67
2019-05-12T17:29:45.380Z,95111.89
2019-05-12T17:32:14.110Z,95114.92
2019-05-12T17:34:45.850Z,95114.50
2019-05-12T17:37:14.548Z,95116.67
2019-05-12T17:39:43.794Z,95116.53
2019-05-12T17:42:21.318Z,95117.55
2019-05-12T17:44:43.612Z,95118.78
2019-05-12T17:47:20.727Z,95120.36
2019-05-12T17:49:43.566Z,95123.84
2019-05-12T17:52:17.461Z,95129.32
2019-05-12T17:54:43.443Z,95126.12
2019-05-12T17:57:15.807Z,95130.97
2019-05-12T17:59:44.659Z,95128.38
2019-05-12T18:02:16.721Z,95126.20
2019-05-12T18:04:43.749Z,95138.48
2019-05-12T18:07:18.525Z,95134.23
2019-05-12T18:09:44.186Z,95140.95
2019-05-12T18:12:13.845Z,95138.34
2019-05-12T18:14:46.802Z,95139.08
2019-05-12T18:17:14.208Z,95143.41
2019-05-12T18:19:44.447Z,95143.62
2019-05-12T18:22:14.070Z,95148.81
2019-05-12T18:24:49.412Z,95150.05
2019-05-12T18:27:13.634Z,95147.97
2019-05-12T18:29:44.162Z,95150.64
2019-05-12T18:32:13.868Z,95152.15
2019-05-12T18:34:44.527Z,95164.05
2019-05-12T18:37:13.577Z,95161.38
2019-05-12T18:39:43.681Z,95166.23
2019-05-12T18:42:14.022Z,95163.87
2019-05-12T18:44:43.942Z,95167.45
2019-05-12T18:47:16.668Z,95171.14
2019-05-12T18:49:47.805Z,95171.06
2019-05-12T18:52:14.605Z,95177.77
2019-05-12T18:54:52.263Z,95184.51
2019-05-12T18:57:13.314Z,95184.72
2019-05-12T18:59:46.187Z,95187.31
2019-05-12T19:02:16.343Z,95180.75
2019-05-12T19:04:44.346Z,95184.85
2019-05-12T19:07:15.189Z,95184.08
2019-05-12T19:09:46.921Z,95188.75
2019-05-12T19:12:17.849Z,95192.89
2019-05-12T19:14:45.569Z,95189.41
2019-05-12T19:17:14.200Z,95193.09
2019-05-12T19:19:45.974Z,95197.69
2019-05-12T19:22:14.123Z,95194.81
2019-05-12T19:24:44.374Z,95198.34
2019-05-12T19:27:16.548Z,95191.20
2019-05-12T19:29:48.832Z,95190.42
2019-05-12T19:32:14.505Z,95192.50
2019-05-12T19:34:43.384Z,95197.65
2019-05-12T19:37:14.308Z,95200.25
2019-05-12T19:39:44.554Z,95205.44
2019-05-12T19:42:18.553Z,95202.53
2019-05-12T19:44:44.042Z,95205.36
2019-05-12T19:47:13.773Z,95206.34
2019-05-12T19:49:47.679Z,95205.36
2019-05-12T19:52:13.984Z,95212.06
2019-05-12T19:54:44.351Z,95207.16
2019-05-12T19:57:21.521Z,95212.06
2019-05-12T19:59:50.525Z,95222.74
2019-05-12T20:02:14.421Z,95217.55
2019-05-12T20:04:51.660Z,95225.05
2019-05-12T20:07:13.109Z,95230.25
2019-05-12T20:09:48.395Z,95231.97
2019-05-12T20:12:18.599Z,95223.11
2019-05-12T20:14:43.509Z,95227.50
2019-05-12T20:17:12.009Z,95227.70
2019-05-12T20:19:40.703Z,95230.83
2019-05-12T20:22:09.141Z,95230.22
2019-05-12T20:24:43.876Z,95231.52
2019-05-12T20:27:17.219Z,95228.15
2019-05-12T20:29:43.466Z,95232.25
2019-05-12T20:32:13.921Z,95231.76
2019-05-12T20:34:49.078Z,95229.66
2019-05-12T20:37:16.408Z,95229.58
2019-05-12T20:39:44.619Z,95236.59
2019-05-12T20:42:14.143Z,95233.47
2019-05-12T20:44:43.691Z,95230.09
2019-05-12T20:47:14.009Z,95230.02
2019-05-12T20:49:50.806Z,95238.30
2019-05-12T20:52:14.451Z,95241.18
2019-05-12T20:54:44.144Z,95237.58
2019-05-12T20:57:14.123Z,95236.80
2019-05-12T20:59:44.591Z,95245.68
2019-05-12T21:02:14.143Z,95238.37
2019-05-12T21:04:44.335Z,95234.20
2019-05-12T21:07:21.214Z,95243.09
2019-05-12T21:09:44.185Z,95238.74
2019-05-12T21:12:13.854Z,95235.94
2019-05-12T21:14:51.213Z,95242.36
2019-05-12T21:17:15.794Z,95239.84
2019-05-12T21:19:55.770Z,95240.61
2019-05-12T21:22:14.271Z,95241.91
2019-05-12T21:24:43.847Z,95245.03
2019-05-12T21:27:15.833Z,95242.72
2019-05-12T21:29:43.672Z,95248.00
2019-05-12T21:32:16.569Z,95244.59
2019-05-12T21:34:43.700Z,95246.20
2019-05-12T21:37:13.980Z,95243.81
2019-05-12T21:39:49.122Z,95251.69
2019-05-12T21:42:13.022Z,95247.27
2019-05-12T21:44:46.784Z,95247.50
2019-05-12T21:47:13.752Z,95250.15
2019-05-12T21:49:47.674Z,95251.97
2019-05-12T21:52:13.684Z,95253.84
2019-05-12T21:54:43.910Z,95258.09
2019-05-12T21:57:12.598Z,95248.72
2019-05-12T21:59:41.032Z,95253.92
2019-05-12T22:02:09.529Z,95246.85
2019-05-12T22:04:42.850Z,95252.62
2019-05-12T22:07:08.391Z,95251.53
2019-05-12T22:09:41.773Z,95253.19
2019-05-12T22:12:07.236Z,95253.50
2019-05-12T22:14:40.649Z,95257.73
2019-05-12T22:17:07.421Z,95249.58
2019-05-12T22:19:38.109Z,95254.20
2019-05-12T22:22:05.997Z,95247.70
2019-05-12T22:24:38.696Z,95251.81
2019-05-12T22:27:05.250Z,95254.98
2019-05-12T22:29:34.296Z,95259.97
2019-05-12T22:32:05.164Z,95256.88
2019-05-12T22:34:37.210Z,95254.56
2019-05-12T22:37:04.023Z,95259.52
2019-05-12T22:39:33.814Z,95247.55
2019-05-12T22:42:03.508Z,95253.76
2019-05-12T22:44:34.527Z,95254.84
2019-05-12T22:47:12.021Z,95253.23
2019-05-12T22:49:33.844Z,95252.95
2019-05-12T22:52:04.801Z,95251.36
2019-05-12T22:54:33.702Z,95252.95
2019-05-12T22:57:04.093Z,95251.73
2019-05-12T22:59:40.435Z,95251.66
2019-05-12T23:02:04.436Z,95254.33
2019-05-12T23:04:35.465Z,95251.16
2019-05-12T23:07:02.703Z,95253.84
2019-05-12T23:09:31.113Z,95248.20
2019-05-12T23:11:59.851Z,95244.23
2019-05-12T23:14:28.312Z,95239.91
2019-05-12T23:17:00.188Z,95239.63
2019-05-12T23:19:26.849Z,95240.33
2019-05-12T23:21:58.762Z,95236.59
2019-05-12T23:24:30.471Z,95239.19
2019-05-12T23:26:55.863Z,95237.08
2019-05-12T23:29:26.702Z,95235.78
2019-05-12T23:31:54.656Z,95233.75
2019-05-12T23:34:23.446Z,95233.75
2019-05-12T23:36:56.891Z,95236.59
2019-05-12T23:39:23.573Z,95236.80
2019-05-12T23:41:53.754Z,95237.52
2019-05-12T23:44:23.973Z,95235.63
2019-05-12T23:46:53.802Z,95231.73
2019-05-12T23:49:24.400Z,95231.94
2019-05-12T23:51:54.194Z,95229.29
2019-05-12T23:54:23.761Z,95225.88
2019-05-12T23:56:53.712Z,95223.20
2019-05-12T23:59:24.028Z,95224.79
